sensor_id;sensor_type;location;lat;lon;timestamp;P1;durP1;ratioP1;P2;durP2;ratioP2
17915;SDS011;9083;49.156;8.982;2023-11-19T00:01:50;3.23;;;2.80;;
17915;SDS011;9083;49.156;8.982;2023-11-19T00:04:16;7.30;;;2.50;;
17915;SDS011;9083;49.156;8.982;2023-11-19T00:06:42;3.20;;;2.97;;
17915;SDS011;9083;49.156;8.982;2023-11-19T00:09:09;3.40;;;2.87;;
17915;SDS011;9083;49.156;8.982;2023-11-19T00:11:35;3.67;;;2.90;;
17915;SDS011;9083;49.156;8.982;2023-11-19T00:14:01;3.53;;;3.23;;
17915;SDS011;9083;49.156;8.982;2023-11-19T00:16:29;4.60;;;3.43;;
17915;SDS011;9083;49.156;8.982;2023-11-19T00:18:58;3.33;;;3.07;;
17915;SDS011;9083;49.156;8.982;2023-11-19T00:21:24;3.13;;;2.83;;
17915;SDS011;9083;49.156;8.982;2023-11-19T00:23:53;4.67;;;3.10;;
17915;SDS011;9083;49.156;8.982;2023-11-19T00:26:20;4.13;;;3.50;;
17915;SDS011;9083;49.156;8.982;2023-11-19T00:28:46;5.70;;;3.50;;
17915;SDS011;9083;49.156;8.982;2023-11-19T00:31:13;5.60;;;3.20;;
17915;SDS011;9083;49.156;8.982;2023-11-19T00:33:40;3.80;;;3.37;;
17915;SDS011;9083;49.156;8.982;2023-11-19T00:36:08;3.53;;;3.23;;
17915;SDS011;9083;49.156;8.982;2023-11-19T00:38:34;3.40;;;3.10;;
17915;SDS011;9083;49.156;8.982;2023-11-19T00:41:00;4.07;;;3.63;;
17915;SDS011;9083;49.156;8.982;2023-11-19T00:43:27;3.63;;;3.33;;
17915;SDS011;9083;49.156;8.982;2023-11-19T00:45:53;4.67;;;3.33;;
17915;SDS011;9083;49.156;8.982;2023-11-19T00:48:20;4.27;;;3.50;;
17915;SDS011;9083;49.156;8.982;2023-11-19T00:50:46;3.27;;;3.00;;
17915;SDS011;9083;49.156;8.982;2023-11-19T00:53:14;3.30;;;3.07;;
17915;SDS011;9083;49.156;8.982;2023-11-19T00:55:40;3.53;;;3.23;;
17915;SDS011;9083;49.156;8.982;2023-11-19T00:58:06;4.10;;;3.63;;
17915;SDS011;9083;49.156;8.982;2023-11-19T01:00:32;4.43;;;3.23;;
17915;SDS011;9083;49.156;8.982;2023-11-19T01:03:00;4.53;;;3.50;;
17915;SDS011;9083;49.156;8.982;2023-11-19T01:05:26;5.17;;;3.53;;
17915;SDS011;9083;49.156;8.982;2023-11-19T01:07:53;3.57;;;3.27;;
17915;SDS011;9083;49.156;8.982;2023-11-19T01:10:21;5.83;;;3.60;;
17915;SDS011;9083;49.156;8.982;2023-11-19T01:12:47;4.30;;;3.50;;
17915;SDS011;9083;49.156;8.982;2023-11-19T01:15:13;4.70;;;3.70;;
17915;SDS011;9083;49.156;8.982;2023-11-19T01:17:40;4.23;;;3.50;;
17915;SDS011;9083;49.156;8.982;2023-11-19T01:20:06;3.97;;;3.60;;
17915;SDS011;9083;49.156;8.982;2023-11-19T01:22:33;4.13;;;3.73;;
17915;SDS011;9083;49.156;8.982;2023-11-19T01:25:00;4.10;;;3.70;;
17915;SDS011;9083;49.156;8.982;2023-11-19T01:27:28;5.93;;;3.60;;
17915;SDS011;9083;49.156;8.982;2023-11-19T01:29:54;4.00;;;3.60;;
17915;SDS011;9083;49.156;8.982;2023-11-19T01:32:20;4.37;;;3.93;;
17915;SDS011;9083;49.156;8.982;2023-11-19T01:34:49;4.37;;;3.80;;
17915;SDS011;9083;49.156;8.982;2023-11-19T01:37:15;5.10;;;4.00;;
17915;SDS011;9083;49.156;8.982;2023-11-19T01:39:43;5.67;;;3.63;;
17915;SDS011;9083;49.156;8.982;2023-11-19T01:42:09;3.67;;;3.37;;
17915;SDS011;9083;49.156;8.982;2023-11-19T01:44:38;4.40;;;4.00;;
17915;SDS011;9083;49.156;8.982;2023-11-19T01:47:04;6.90;;;4.30;;
17915;SDS011;9083;49.156;8.982;2023-11-19T01:49:32;3.80;;;3.50;;
17915;SDS011;9083;49.156;8.982;2023-11-19T01:51:58;3.90;;;3.50;;
17915;SDS011;9083;49.156;8.982;2023-11-19T01:54:25;4.17;;;3.80;;
17915;SDS011;9083;49.156;8.982;2023-11-19T01:56:51;3.90;;;3.47;;
17915;SDS011;9083;49.156;8.982;2023-11-19T01:59:18;4.83;;;4.07;;
17915;SDS011;9083;49.156;8.982;2023-11-19T02:01:52;4.87;;;3.93;;
17915;SDS011;9083;49.156;8.982;2023-11-19T02:04:19;5.83;;;4.17;;
17915;SDS011;9083;49.156;8.982;2023-11-19T02:06:45;7.37;;;3.70;;
17915;SDS011;9083;49.156;8.982;2023-11-19T02:09:14;4.97;;;4.33;;
17915;SDS011;9083;49.156;8.982;2023-11-19T02:11:44;4.03;;;3.63;;
17915;SDS011;9083;49.156;8.982;2023-11-19T02:14:14;4.73;;;3.87;;
17915;SDS011;9083;49.156;8.982;2023-11-19T02:16:40;4.37;;;3.73;;
17915;SDS011;9083;49.156;8.982;2023-11-19T02:19:08;3.70;;;3.40;;
17915;SDS011;9083;49.156;8.982;2023-11-19T02:21:35;4.60;;;3.40;;
17915;SDS011;9083;49.156;8.982;2023-11-19T02:24:02;5.10;;;4.17;;
17915;SDS011;9083;49.156;8.982;2023-11-19T02:26:33;6.43;;;4.17;;
17915;SDS011;9083;49.156;8.982;2023-11-19T02:29:01;4.77;;;4.30;;
17915;SDS011;9083;49.156;8.982;2023-11-19T02:31:28;4.77;;;3.73;;
17915;SDS011;9083;49.156;8.982;2023-11-19T02:33:55;5.53;;;4.23;;
17915;SDS011;9083;49.156;8.982;2023-11-19T02:36:21;4.00;;;3.70;;
17915;SDS011;9083;49.156;8.982;2023-11-19T02:38:48;4.47;;;4.07;;
17915;SDS011;9083;49.156;8.982;2023-11-19T02:41:14;4.43;;;3.97;;
17915;SDS011;9083;49.156;8.982;2023-11-19T02:43:41;5.13;;;4.63;;
17915;SDS011;9083;49.156;8.982;2023-11-19T02:46:08;4.93;;;4.00;;
17915;SDS011;9083;49.156;8.982;2023-11-19T02:48:36;4.77;;;3.87;;
17915;SDS011;9083;49.156;8.982;2023-11-19T02:51:02;4.27;;;3.87;;
17915;SDS011;9083;49.156;8.982;2023-11-19T02:53:29;6.80;;;4.13;;
17915;SDS011;9083;49.156;8.982;2023-11-19T02:55:56;4.40;;;3.80;;
17915;SDS011;9083;49.156;8.982;2023-11-19T02:58:27;4.97;;;4.17;;
17915;SDS011;9083;49.156;8.982;2023-11-19T03:00:54;4.50;;;4.10;;
17915;SDS011;9083;49.156;8.982;2023-11-19T03:03:23;4.37;;;3.97;;
17915;SDS011;9083;49.156;8.982;2023-11-19T03:05:53;5.10;;;4.60;;
17915;SDS011;9083;49.156;8.982;2023-11-19T03:08:20;4.90;;;4.40;;
17915;SDS011;9083;49.156;8.982;2023-11-19T03:10:47;4.90;;;4.40;;
17915;SDS011;9083;49.156;8.982;2023-11-19T03:13:14;5.17;;;4.60;;
17915;SDS011;9083;49.156;8.982;2023-11-19T03:15:40;5.07;;;4.57;;
17915;SDS011;9083;49.156;8.982;2023-11-19T03:18:07;5.27;;;4.77;;
17915;SDS011;9083;49.156;8.982;2023-11-19T03:20:34;5.53;;;5.03;;
17915;SDS011;9083;49.156;8.982;2023-11-19T03:23:01;5.00;;;4.53;;
17915;SDS011;9083;49.156;8.982;2023-11-19T03:25:27;4.77;;;4.20;;
17915;SDS011;9083;49.156;8.982;2023-11-19T03:27:58;5.47;;;4.50;;
17915;SDS011;9083;49.156;8.982;2023-11-19T03:30:24;4.90;;;4.40;;
17915;SDS011;9083;49.156;8.982;2023-11-19T03:32:51;5.50;;;4.27;;
17915;SDS011;9083;49.156;8.982;2023-11-19T03:35:17;4.23;;;3.87;;
17915;SDS011;9083;49.156;8.982;2023-11-19T03:37:45;5.97;;;4.00;;
17915;SDS011;9083;49.156;8.982;2023-11-19T03:40:11;5.07;;;4.23;;
17915;SDS011;9083;49.156;8.982;2023-11-19T03:42:38;5.93;;;5.03;;
17915;SDS011;9083;49.156;8.982;2023-11-19T03:45:05;8.10;;;5.07;;
17915;SDS011;9083;49.156;8.982;2023-11-19T03:47:33;5.20;;;4.67;;
17915;SDS011;9083;49.156;8.982;2023-11-19T03:49:59;5.23;;;4.53;;
17915;SDS011;9083;49.156;8.982;2023-11-19T03:52:26;4.47;;;3.93;;
17915;SDS011;9083;49.156;8.982;2023-11-19T03:54:54;5.60;;;4.30;;
17915;SDS011;9083;49.156;8.982;2023-11-19T03:57:21;4.37;;;3.97;;
17915;SDS011;9083;49.156;8.982;2023-11-19T03:59:48;3.70;;;3.40;;
17915;SDS011;9083;49.156;8.982;2023-11-19T04:02:14;2.37;;;2.27;;
17915;SDS011;9083;49.156;8.982;2023-11-19T04:04:41;1.33;;;1.33;;
17915;SDS011;9083;49.156;8.982;2023-11-19T04:07:07;1.17;;;1.17;;
17915;SDS011;9083;49.156;8.982;2023-11-19T04:09:34;1.20;;;1.20;;
17915;SDS011;9083;49.156;8.982;2023-11-19T04:12:04;2.57;;;0.93;;
17915;SDS011;9083;49.156;8.982;2023-11-19T04:14:30;2.93;;;1.20;;
17915;SDS011;9083;49.156;8.982;2023-11-19T04:16:57;0.80;;;0.80;;
17915;SDS011;9083;49.156;8.982;2023-11-19T04:19:23;1.10;;;1.00;;
17915;SDS011;9083;49.156;8.982;2023-11-19T04:21:49;0.90;;;0.90;;
17915;SDS011;9083;49.156;8.982;2023-11-19T04:24:17;0.77;;;0.77;;
17915;SDS011;9083;49.156;8.982;2023-11-19T04:26:44;1.10;;;1.10;;
17915;SDS011;9083;49.156;8.982;2023-11-19T04:29:13;0.87;;;0.87;;
17915;SDS011;9083;49.156;8.982;2023-11-19T04:31:39;1.10;;;1.10;;
17915;SDS011;9083;49.156;8.982;2023-11-19T04:34:06;1.00;;;1.00;;
17915;SDS011;9083;49.156;8.982;2023-11-19T04:36:32;1.00;;;1.00;;
17915;SDS011;9083;49.156;8.982;2023-11-19T04:38:59;1.00;;;1.00;;
17915;SDS011;9083;49.156;8.982;2023-11-19T04:41:25;0.97;;;0.97;;
17915;SDS011;9083;49.156;8.982;2023-11-19T04:43:52;0.90;;;0.90;;
17915;SDS011;9083;49.156;8.982;2023-11-19T04:46:20;1.17;;;1.17;;
17915;SDS011;9083;49.156;8.982;2023-11-19T04:48:47;1.00;;;1.00;;
17915;SDS011;9083;49.156;8.982;2023-11-19T04:51:14;1.00;;;1.00;;
17915;SDS011;9083;49.156;8.982;2023-11-19T04:53:40;0.90;;;0.90;;
17915;SDS011;9083;49.156;8.982;2023-11-19T04:56:10;1.30;;;1.20;;
17915;SDS011;9083;49.156;8.982;2023-11-19T04:58:36;0.97;;;0.97;;
17915;SDS011;9083;49.156;8.982;2023-11-19T05:01:03;1.00;;;0.97;;
17915;SDS011;9083;49.156;8.982;2023-11-19T05:03:32;1.00;;;1.00;;
17915;SDS011;9083;49.156;8.982;2023-11-19T05:05:58;1.10;;;1.10;;
17915;SDS011;9083;49.156;8.982;2023-11-19T05:08:24;1.10;;;1.00;;
17915;SDS011;9083;49.156;8.982;2023-11-19T05:10:51;0.90;;;0.90;;
17915;SDS011;9083;49.156;8.982;2023-11-19T05:13:17;1.10;;;1.10;;
17915;SDS011;9083;49.156;8.982;2023-11-19T05:15:43;1.07;;;1.07;;
17915;SDS011;9083;49.156;8.982;2023-11-19T05:18:10;0.90;;;0.90;;
17915;SDS011;9083;49.156;8.982;2023-11-19T05:20:37;1.10;;;1.00;;
17915;SDS011;9083;49.156;8.982;2023-11-19T05:23:03;0.90;;;0.90;;
17915;SDS011;9083;49.156;8.982;2023-11-19T05:25:30;1.37;;;1.07;;
17915;SDS011;9083;49.156;8.982;2023-11-19T05:27:56;1.20;;;1.20;;
17915;SDS011;9083;49.156;8.982;2023-11-19T05:30:22;1.10;;;1.10;;
17915;SDS011;9083;49.156;8.982;2023-11-19T05:32:49;1.20;;;1.20;;
17915;SDS011;9083;49.156;8.982;2023-11-19T05:35:15;1.57;;;0.90;;
17915;SDS011;9083;49.156;8.982;2023-11-19T05:37:43;1.00;;;1.00;;
17915;SDS011;9083;49.156;8.982;2023-11-19T05:40:09;1.03;;;1.03;;
17915;SDS011;9083;49.156;8.982;2023-11-19T05:42:39;1.27;;;1.13;;
17915;SDS011;9083;49.156;8.982;2023-11-19T05:45:06;1.30;;;1.30;;
17915;SDS011;9083;49.156;8.982;2023-11-19T05:47:33;0.93;;;0.93;;
17915;SDS011;9083;49.156;8.982;2023-11-19T05:50:00;1.00;;;1.00;;
17915;SDS011;9083;49.156;8.982;2023-11-19T05:52:26;1.17;;;1.17;;
17915;SDS011;9083;49.156;8.982;2023-11-19T05:54:54;1.47;;;1.37;;
17915;SDS011;9083;49.156;8.982;2023-11-19T05:57:21;1.00;;;1.00;;
17915;SDS011;9083;49.156;8.982;2023-11-19T05:59:50;1.10;;;1.00;;
17915;SDS011;9083;49.156;8.982;2023-11-19T06:02:16;1.17;;;1.10;;
17915;SDS011;9083;49.156;8.982;2023-11-19T06:04:43;0.80;;;0.80;;
17915;SDS011;9083;49.156;8.982;2023-11-19T06:07:12;1.00;;;1.00;;
17915;SDS011;9083;49.156;8.982;2023-11-19T06:09:40;0.90;;;0.90;;
17915;SDS011;9083;49.156;8.982;2023-11-19T06:12:08;1.30;;;1.00;;
17915;SDS011;9083;49.156;8.982;2023-11-19T06:14:35;1.00;;;1.00;;
17915;SDS011;9083;49.156;8.982;2023-11-19T06:17:01;2.70;;;0.90;;
17915;SDS011;9083;49.156;8.982;2023-11-19T06:19:26;0.70;;;0.70;;
17915;SDS011;9083;49.156;8.982;2023-11-19T06:21:53;0.90;;;0.90;;
17915;SDS011;9083;49.156;8.982;2023-11-19T06:24:19;1.00;;;1.00;;
17915;SDS011;9083;49.156;8.982;2023-11-19T06:26:45;1.07;;;1.07;;
17915;SDS011;9083;49.156;8.982;2023-11-19T06:29:13;1.70;;;0.90;;
17915;SDS011;9083;49.156;8.982;2023-11-19T06:31:43;1.03;;;1.03;;
17915;SDS011;9083;49.156;8.982;2023-11-19T06:34:10;0.90;;;0.90;;
17915;SDS011;9083;49.156;8.982;2023-11-19T06:36:36;0.80;;;0.80;;
17915;SDS011;9083;49.156;8.982;2023-11-19T06:39:03;1.17;;;0.90;;
17915;SDS011;9083;49.156;8.982;2023-11-19T06:41:31;0.97;;;0.97;;
17915;SDS011;9083;49.156;8.982;2023-11-19T06:43:57;0.70;;;0.70;;
17915;SDS011;9083;49.156;8.982;2023-11-19T06:46:26;0.73;;;0.73;;
17915;SDS011;9083;49.156;8.982;2023-11-19T06:48:52;0.60;;;0.60;;
17915;SDS011;9083;49.156;8.982;2023-11-19T06:51:18;0.70;;;0.70;;
17915;SDS011;9083;49.156;8.982;2023-11-19T06:53:45;0.80;;;0.80;;
17915;SDS011;9083;49.156;8.982;2023-11-19T06:56:18;0.87;;;0.87;;
17915;SDS011;9083;49.156;8.982;2023-11-19T06:58:44;0.80;;;0.80;;
17915;SDS011;9083;49.156;8.982;2023-11-19T07:01:12;0.70;;;0.70;;
17915;SDS011;9083;49.156;8.982;2023-11-19T07:03:40;0.60;;;0.60;;
17915;SDS011;9083;49.156;8.982;2023-11-19T07:06:06;0.70;;;0.70;;
17915;SDS011;9083;49.156;8.982;2023-11-19T07:08:33;0.90;;;0.90;;
17915;SDS011;9083;49.156;8.982;2023-11-19T07:10:59;0.73;;;0.73;;
17915;SDS011;9083;49.156;8.982;2023-11-19T07:13:26;0.80;;;0.80;;
17915;SDS011;9083;49.156;8.982;2023-11-19T07:15:53;0.80;;;0.80;;
17915;SDS011;9083;49.156;8.982;2023-11-19T07:18:19;0.70;;;0.70;;
17915;SDS011;9083;49.156;8.982;2023-11-19T07:20:48;0.80;;;0.80;;
17915;SDS011;9083;49.156;8.982;2023-11-19T07:23:14;0.70;;;0.70;;
17915;SDS011;9083;49.156;8.982;2023-11-19T07:25:41;0.80;;;0.80;;
17915;SDS011;9083;49.156;8.982;2023-11-19T07:28:08;0.80;;;0.80;;
17915;SDS011;9083;49.156;8.982;2023-11-19T07:30:35;0.90;;;0.87;;
17915;SDS011;9083;49.156;8.982;2023-11-19T07:33:01;2.00;;;0.80;;
17915;SDS011;9083;49.156;8.982;2023-11-19T07:35:28;0.80;;;0.80;;
17915;SDS011;9083;49.156;8.982;2023-11-19T07:37:57;0.93;;;0.70;;
17915;SDS011;9083;49.156;8.982;2023-11-19T07:40:23;1.00;;;0.90;;
17915;SDS011;9083;49.156;8.982;2023-11-19T07:42:49;2.27;;;1.10;;
17915;SDS011;9083;49.156;8.982;2023-11-19T07:45:16;1.90;;;1.20;;
17915;SDS011;9083;49.156;8.982;2023-11-19T07:47:42;3.20;;;1.00;;
17915;SDS011;9083;49.156;8.982;2023-11-19T07:50:09;1.10;;;1.10;;
17915;SDS011;9083;49.156;8.982;2023-11-19T07:52:38;0.90;;;0.90;;
17915;SDS011;9083;49.156;8.982;2023-11-19T07:55:06;1.10;;;1.00;;
17915;SDS011;9083;49.156;8.982;2023-11-19T07:57:32;1.67;;;0.90;;
17915;SDS011;9083;49.156;8.982;2023-11-19T07:59:59;0.90;;;0.90;;
17915;SDS011;9083;49.156;8.982;2023-11-19T08:02:26;0.70;;;0.70;;
17915;SDS011;9083;49.156;8.982;2023-11-19T08:04:53;1.03;;;1.03;;
17915;SDS011;9083;49.156;8.982;2023-11-19T08:07:20;0.93;;;0.80;;
17915;SDS011;9083;49.156;8.982;2023-11-19T08:09:47;2.00;;;0.70;;
17915;SDS011;9083;49.156;8.982;2023-11-19T08:12:14;0.70;;;0.70;;
17915;SDS011;9083;49.156;8.982;2023-11-19T08:14:42;0.80;;;0.80;;
17915;SDS011;9083;49.156;8.982;2023-11-19T08:17:09;0.97;;;0.60;;
17915;SDS011;9083;49.156;8.982;2023-11-19T08:19:35;0.70;;;0.70;;
17915;SDS011;9083;49.156;8.982;2023-11-19T08:22:01;2.37;;;0.80;;
17915;SDS011;9083;49.156;8.982;2023-11-19T08:24:28;1.50;;;0.80;;
17915;SDS011;9083;49.156;8.982;2023-11-19T08:26:54;0.80;;;0.80;;
17915;SDS011;9083;49.156;8.982;2023-11-19T08:29:22;2.00;;;0.90;;
17915;SDS011;9083;49.156;8.982;2023-11-19T08:31:48;1.00;;;0.80;;
17915;SDS011;9083;49.156;8.982;2023-11-19T08:34:14;0.70;;;0.70;;
17915;SDS011;9083;49.156;8.982;2023-11-19T08:36:40;1.60;;;1.07;;
17915;SDS011;9083;49.156;8.982;2023-11-19T08:39:07;1.87;;;1.03;;
17915;SDS011;9083;49.156;8.982;2023-11-19T08:41:34;1.67;;;1.57;;
17915;SDS011;9083;49.156;8.982;2023-11-19T08:44:00;2.83;;;1.30;;
17915;SDS011;9083;49.156;8.982;2023-11-19T08:46:28;1.20;;;1.10;;
17915;SDS011;9083;49.156;8.982;2023-11-19T08:48:54;1.20;;;1.10;;
17915;SDS011;9083;49.156;8.982;2023-11-19T08:51:22;1.13;;;0.90;;
17915;SDS011;9083;49.156;8.982;2023-11-19T08:53:49;1.40;;;1.30;;
17915;SDS011;9083;49.156;8.982;2023-11-19T08:56:16;1.00;;;1.00;;
17915;SDS011;9083;49.156;8.982;2023-11-19T08:58:42;1.10;;;1.10;;
17915;SDS011;9083;49.156;8.982;2023-11-19T09:01:08;3.13;;;1.70;;
17915;SDS011;9083;49.156;8.982;2023-11-19T09:03:36;1.73;;;1.63;;
17915;SDS011;9083;49.156;8.982;2023-11-19T09:06:03;1.60;;;1.50;;
17915;SDS011;9083;49.156;8.982;2023-11-19T09:08:29;1.37;;;1.23;;
17915;SDS011;9083;49.156;8.982;2023-11-19T09:10:55;1.53;;;1.43;;
17915;SDS011;9083;49.156;8.982;2023-11-19T09:13:22;4.73;;;2.10;;
17915;SDS011;9083;49.156;8.982;2023-11-19T09:15:48;1.70;;;1.60;;
17915;SDS011;9083;49.156;8.982;2023-11-19T09:18:14;1.40;;;1.30;;
17915;SDS011;9083;49.156;8.982;2023-11-19T09:20:42;2.00;;;1.90;;
17915;SDS011;9083;49.156;8.982;2023-11-19T09:23:09;3.80;;;1.30;;
17915;SDS011;9083;49.156;8.982;2023-11-19T09:25:35;1.10;;;1.10;;
17915;SDS011;9083;49.156;8.982;2023-11-19T09:28:02;1.73;;;1.50;;
17915;SDS011;9083;49.156;8.982;2023-11-19T09:30:28;3.33;;;1.37;;
17915;SDS011;9083;49.156;8.982;2023-11-19T09:32:54;2.53;;;2.30;;
17915;SDS011;9083;49.156;8.982;2023-11-19T09:35:21;2.07;;;1.60;;
17915;SDS011;9083;49.156;8.982;2023-11-19T09:37:48;2.00;;;1.30;;
17915;SDS011;9083;49.156;8.982;2023-11-19T09:40:15;1.90;;;1.13;;
17915;SDS011;9083;49.156;8.982;2023-11-19T09:42:43;1.50;;;1.40;;
17915;SDS011;9083;49.156;8.982;2023-11-19T09:45:12;1.40;;;1.40;;
17915;SDS011;9083;49.156;8.982;2023-11-19T09:47:39;1.33;;;1.07;;
17915;SDS011;9083;49.156;8.982;2023-11-19T09:50:05;1.27;;;1.10;;
17915;SDS011;9083;49.156;8.982;2023-11-19T09:52:32;1.10;;;1.10;;
17915;SDS011;9083;49.156;8.982;2023-11-19T09:54:59;1.23;;;1.10;;
17915;SDS011;9083;49.156;8.982;2023-11-19T09:57:26;1.10;;;1.10;;
17915;SDS011;9083;49.156;8.982;2023-11-19T09:59:53;2.53;;;1.00;;
17915;SDS011;9083;49.156;8.982;2023-11-19T10:02:19;1.30;;;1.30;;
17915;SDS011;9083;49.156;8.982;2023-11-19T10:04:46;1.40;;;1.33;;
17915;SDS011;9083;49.156;8.982;2023-11-19T10:07:12;3.60;;;1.60;;
17915;SDS011;9083;49.156;8.982;2023-11-19T10:09:38;2.43;;;2.33;;
17915;SDS011;9083;49.156;8.982;2023-11-19T10:12:06;1.90;;;1.80;;
17915;SDS011;9083;49.156;8.982;2023-11-19T10:14:33;1.03;;;1.00;;
17915;SDS011;9083;49.156;8.982;2023-11-19T10:17:02;1.03;;;1.03;;
17915;SDS011;9083;49.156;8.982;2023-11-19T10:19:29;1.30;;;1.30;;
17915;SDS011;9083;49.156;8.982;2023-11-19T10:21:55;0.80;;;0.80;;
17915;SDS011;9083;49.156;8.982;2023-11-19T10:24:31;1.13;;;1.13;;
17915;SDS011;9083;49.156;8.982;2023-11-19T10:26:57;1.23;;;1.07;;
17915;SDS011;9083;49.156;8.982;2023-11-19T10:29:25;1.40;;;1.30;;
17915;SDS011;9083;49.156;8.982;2023-11-19T10:31:55;2.20;;;1.10;;
17915;SDS011;9083;49.156;8.982;2023-11-19T10:34:23;0.90;;;0.90;;
17915;SDS011;9083;49.156;8.982;2023-11-19T10:36:50;1.20;;;1.20;;
17915;SDS011;9083;49.156;8.982;2023-11-19T10:39:16;3.20;;;1.43;;
17915;SDS011;9083;49.156;8.982;2023-11-19T10:41:44;2.20;;;0.90;;
17915;SDS011;9083;49.156;8.982;2023-11-19T10:44:10;2.40;;;1.27;;
17915;SDS011;9083;49.156;8.982;2023-11-19T10:46:38;1.77;;;1.10;;
17915;SDS011;9083;49.156;8.982;2023-11-19T10:49:05;1.80;;;0.90;;
17915;SDS011;9083;49.156;8.982;2023-11-19T10:51:32;1.03;;;1.03;;
17915;SDS011;9083;49.156;8.982;2023-11-19T10:54:00;2.13;;;1.00;;
17915;SDS011;9083;49.156;8.982;2023-11-19T10:56:29;1.17;;;1.10;;
17915;SDS011;9083;49.156;8.982;2023-11-19T10:58:56;0.80;;;0.80;;
17915;SDS011;9083;49.156;8.982;2023-11-19T11:01:24;1.67;;;0.80;;
17915;SDS011;9083;49.156;8.982;2023-11-19T11:03:53;1.00;;;1.00;;
17915;SDS011;9083;49.156;8.982;2023-11-19T11:06:21;1.00;;;1.00;;
17915;SDS011;9083;49.156;8.982;2023-11-19T11:08:48;1.13;;;0.93;;
17915;SDS011;9083;49.156;8.982;2023-11-19T11:11:15;1.13;;;1.07;;
17915;SDS011;9083;49.156;8.982;2023-11-19T11:13:42;1.87;;;0.93;;
17915;SDS011;9083;49.156;8.982;2023-11-19T11:16:09;4.43;;;1.07;;
17915;SDS011;9083;49.156;8.982;2023-11-19T11:18:36;2.93;;;1.00;;
17915;SDS011;9083;49.156;8.982;2023-11-19T11:21:04;0.80;;;0.80;;
17915;SDS011;9083;49.156;8.982;2023-11-19T11:23:37;2.00;;;0.80;;
17915;SDS011;9083;49.156;8.982;2023-11-19T11:26:14;2.33;;;1.10;;
17915;SDS011;9083;49.156;8.982;2023-11-19T11:28:46;1.00;;;1.00;;
17915;SDS011;9083;49.156;8.982;2023-11-19T11:31:22;1.00;;;0.90;;
17915;SDS011;9083;49.156;8.982;2023-11-19T11:33:59;1.10;;;1.10;;
17915;SDS011;9083;49.156;8.982;2023-11-19T11:36:30;1.33;;;0.90;;
17915;SDS011;9083;49.156;8.982;2023-11-19T11:38:58;1.13;;;1.03;;
17915;SDS011;9083;49.156;8.982;2023-11-19T11:41:25;1.17;;;0.97;;
17915;SDS011;9083;49.156;8.982;2023-11-19T11:43:51;1.10;;;0.97;;
17915;SDS011;9083;49.156;8.982;2023-11-19T11:49:05;1.17;;;1.00;;
17915;SDS011;9083;49.156;8.982;2023-11-19T11:54:26;1.10;;;1.10;;
17915;SDS011;9083;49.156;8.982;2023-11-19T11:57:03;1.37;;;1.20;;
17915;SDS011;9083;49.156;8.982;2023-11-19T11:59:37;1.17;;;0.90;;
17915;SDS011;9083;49.156;8.982;2023-11-19T12:02:03;3.10;;;1.20;;
17915;SDS011;9083;49.156;8.982;2023-11-19T12:04:29;6.67;;;1.30;;
17915;SDS011;9083;49.156;8.982;2023-11-19T12:07:03;0.70;;;0.70;;
17915;SDS011;9083;49.156;8.982;2023-11-19T12:09:30;1.10;;;1.10;;
17915;SDS011;9083;49.156;8.982;2023-11-19T12:12:06;1.23;;;1.13;;
17915;SDS011;9083;49.156;8.982;2023-11-19T12:19:59;3.00;;;1.20;;
17915;SDS011;9083;49.156;8.982;2023-11-19T12:22:26;1.27;;;1.17;;
17915;SDS011;9083;49.156;8.982;2023-11-19T12:24:54;2.20;;;1.90;;
17915;SDS011;9083;49.156;8.982;2023-11-19T12:27:21;1.07;;;1.07;;
17915;SDS011;9083;49.156;8.982;2023-11-19T12:29:48;5.23;;;1.60;;
17915;SDS011;9083;49.156;8.982;2023-11-19T12:32:14;1.30;;;1.00;;
17915;SDS011;9083;49.156;8.982;2023-11-19T12:34:40;2.20;;;1.20;;
17915;SDS011;9083;49.156;8.982;2023-11-19T12:37:07;3.63;;;1.33;;
17915;SDS011;9083;49.156;8.982;2023-11-19T12:39:34;1.73;;;1.40;;
17915;SDS011;9083;49.156;8.982;2023-11-19T12:42:02;1.63;;;1.50;;
17915;SDS011;9083;49.156;8.982;2023-11-19T12:44:30;1.23;;;1.07;;
17915;SDS011;9083;49.156;8.982;2023-11-19T12:47:00;5.30;;;1.50;;
17915;SDS011;9083;49.156;8.982;2023-11-19T12:49:27;3.40;;;1.20;;
17915;SDS011;9083;49.156;8.982;2023-11-19T12:51:53;1.10;;;1.00;;
17915;SDS011;9083;49.156;8.982;2023-11-19T12:54:20;1.20;;;0.90;;
17915;SDS011;9083;49.156;8.982;2023-11-19T12:56:51;1.30;;;1.20;;
17915;SDS011;9083;49.156;8.982;2023-11-19T12:59:19;1.20;;;1.10;;
17915;SDS011;9083;49.156;8.982;2023-11-19T13:01:53;1.20;;;1.20;;
17915;SDS011;9083;49.156;8.982;2023-11-19T13:04:19;1.43;;;1.30;;
17915;SDS011;9083;49.156;8.982;2023-11-19T13:06:46;1.10;;;1.10;;
17915;SDS011;9083;49.156;8.982;2023-11-19T13:09:21;1.50;;;1.10;;
17915;SDS011;9083;49.156;8.982;2023-11-19T13:11:48;2.37;;;1.00;;
17915;SDS011;9083;49.156;8.982;2023-11-19T13:14:14;1.93;;;1.03;;
17915;SDS011;9083;49.156;8.982;2023-11-19T13:16:42;0.90;;;0.90;;
17915;SDS011;9083;49.156;8.982;2023-11-19T13:19:08;1.37;;;1.07;;
17915;SDS011;9083;49.156;8.982;2023-11-19T13:21:34;1.37;;;1.00;;
17915;SDS011;9083;49.156;8.982;2023-11-19T13:24:02;6.53;;;1.30;;
17915;SDS011;9083;49.156;8.982;2023-11-19T13:26:28;1.10;;;1.10;;
17915;SDS011;9083;49.156;8.982;2023-11-19T13:28:54;1.30;;;1.20;;
17915;SDS011;9083;49.156;8.982;2023-11-19T13:31:21;1.53;;;1.43;;
17915;SDS011;9083;49.156;8.982;2023-11-19T13:33:49;1.50;;;1.30;;
17915;SDS011;9083;49.156;8.982;2023-11-19T13:36:15;4.77;;;1.57;;
17915;SDS011;9083;49.156;8.982;2023-11-19T13:38:41;3.37;;;1.50;;
17915;SDS011;9083;49.156;8.982;2023-11-19T13:41:09;1.53;;;1.23;;
17915;SDS011;9083;49.156;8.982;2023-11-19T13:43:36;4.10;;;2.47;;
17915;SDS011;9083;49.156;8.982;2023-11-19T13:46:03;4.60;;;1.63;;
17915;SDS011;9083;49.156;8.982;2023-11-19T13:48:29;8.50;;;2.80;;
17915;SDS011;9083;49.156;8.982;2023-11-19T13:50:57;3.60;;;1.70;;
17915;SDS011;9083;49.156;8.982;2023-11-19T13:53:24;3.60;;;2.07;;
17915;SDS011;9083;49.156;8.982;2023-11-19T13:55:51;5.67;;;2.23;;
17915;SDS011;9083;49.156;8.982;2023-11-19T13:58:18;4.53;;;1.77;;
17915;SDS011;9083;49.156;8.982;2023-11-19T14:00:44;5.67;;;1.97;;
17915;SDS011;9083;49.156;8.982;2023-11-19T14:03:10;8.43;;;2.23;;
17915;SDS011;9083;49.156;8.982;2023-11-19T14:05:37;8.77;;;3.63;;
17915;SDS011;9083;49.156;8.982;2023-11-19T14:08:04;8.10;;;2.60;;
17915;SDS011;9083;49.156;8.982;2023-11-19T14:10:36;2.20;;;1.57;;
17915;SDS011;9083;49.156;8.982;2023-11-19T14:13:04;5.20;;;1.50;;
17915;SDS011;9083;49.156;8.982;2023-11-19T14:15:30;4.03;;;1.83;;
17915;SDS011;9083;49.156;8.982;2023-11-19T14:17:56;5.33;;;2.60;;
17915;SDS011;9083;49.156;8.982;2023-11-19T14:20:22;2.10;;;1.80;;
17915;SDS011;9083;49.156;8.982;2023-11-19T14:22:50;2.93;;;1.40;;
17915;SDS011;9083;49.156;8.982;2023-11-19T14:25:19;2.77;;;1.80;;
17915;SDS011;9083;49.156;8.982;2023-11-19T14:27:46;4.03;;;1.17;;
17915;SDS011;9083;49.156;8.982;2023-11-19T14:30:13;2.30;;;1.23;;
17915;SDS011;9083;49.156;8.982;2023-11-19T14:32:39;1.10;;;1.00;;
17915;SDS011;9083;49.156;8.982;2023-11-19T14:35:07;2.13;;;1.03;;
17915;SDS011;9083;49.156;8.982;2023-11-19T14:37:33;3.90;;;1.53;;
17915;SDS011;9083;49.156;8.982;2023-11-19T14:40:00;2.73;;;1.43;;
17915;SDS011;9083;49.156;8.982;2023-11-19T14:42:29;1.07;;;1.07;;
17915;SDS011;9083;49.156;8.982;2023-11-19T14:44:55;1.40;;;1.00;;
17915;SDS011;9083;49.156;8.982;2023-11-19T14:47:22;4.43;;;1.20;;
17915;SDS011;9083;49.156;8.982;2023-11-19T14:49:48;1.70;;;0.83;;
17915;SDS011;9083;49.156;8.982;2023-11-19T14:52:15;1.47;;;1.30;;
17915;SDS011;9083;49.156;8.982;2023-11-19T14:54:41;1.03;;;1.00;;
17915;SDS011;9083;49.156;8.982;2023-11-19T14:57:07;2.10;;;1.17;;
17915;SDS011;9083;49.156;8.982;2023-11-19T14:59:35;1.13;;;1.10;;
17915;SDS011;9083;49.156;8.982;2023-11-19T15:02:02;2.20;;;1.10;;
17915;SDS011;9083;49.156;8.982;2023-11-19T15:04:28;2.73;;;1.20;;
17915;SDS011;9083;49.156;8.982;2023-11-19T15:06:56;1.87;;;1.47;;
17915;SDS011;9083;49.156;8.982;2023-11-19T15:09:22;1.10;;;1.10;;
17915;SDS011;9083;49.156;8.982;2023-11-19T15:11:49;1.47;;;0.90;;